Time;durP1;ratioP1;P1;durP2;ratioP2;P2;SDS_P1;SDS_P2;PMS_P1;PMS_P2;Temp;Humidity;BMP_temperature;BMP_pressure;BME280_temperature;BME280_humidity;BME280_pressure;Samples;Min_cycle;Max_cycle;Signal;HPM_P1;HPM_P2
2022/12/29 00:01:23;;;;;;;8.30;3.78;;;;;;;10.08;66.76;100077.56;4195513;28;20387;-73
2022/12/29 00:03:26;;;;;;;5.85;2.70;;;;;;;10.18;66.33;100075.91;4194975;28;20040;-73
2022/12/29 00:05:29;;;;;;;6.40;3.17;;;;;;;10.26;66.37;100063.88;4195637;28;20040;-74
2022/12/29 00:07:32;;;;;;;7.60;2.88;;;;;;;10.31;66.40;100070.00;4194757;28;20445;-73
2022/12/29 00:09:36;;;;;;;8.02;2.50;;;;;;;10.46;66.41;100069.28;4202744;28;20039;-74
2022/12/29 00:11:39;;;;;;;6.78;3.33;;;;;;;10.51;66.55;100069.31;4209468;28;20032;-73
2022/12/29 00:16:07;;;;;;;6.40;3.03;;;;;;;10.60;66.19;100061.56;4196426;28;20044;-74
2022/12/29 00:18:10;;;;;;;4.22;2.30;;;;;;;10.70;66.36;100060.78;4192246;28;20115;-74
2022/12/29 00:36:40;;;;;;;5.75;3.22;;;;;;;10.98;67.32;100050.56;4194372;28;20036;-74
2022/12/29 00:45:47;;;;;;;5.15;2.78;;;;;;;10.97;66.30;100059.25;4193627;28;20032;-73
2022/12/29 00:47:51;;;;;;;3.47;2.03;;;;;;;10.95;67.50;100055.75;4194135;28;20094;-73
2022/12/29 00:49:53;;;;;;;4.95;2.30;;;;;;;10.96;66.57;100049.69;4189112;28;20454;-74
2022/12/29 00:51:58;;;;;;;4.95;1.90;;;;;;;10.97;66.41;100061.84;4195758;28;20071;-73
2022/12/29 00:54:01;;;;;;;3.83;1.30;;;;;;;10.87;66.63;100060.06;4194521;28;20116;-74
2022/12/29 00:56:04;;;;;;;3.15;1.80;;;;;;;10.91;66.21;100061.81;4196656;28;20448;-73
2022/12/29 00:58:08;;;;;;;3.83;1.70;;;;;;;10.93;66.98;100067.88;4194826;28;20040;-73
2022/12/29 01:00:13;;;;;;;3.65;1.63;;;;;;;10.87;66.16;100065.25;4196168;28;20094;-74
2022/12/29 01:02:16;;;;;;;4.80;2.05;;;;;;;10.74;66.25;100065.16;4194873;28;20482;-73
2022/12/29 01:04:23;;;;;;;6.45;2.38;;;;;;;10.74;66.07;100072.94;4195608;28;20051;-73
2022/12/29 01:06:25;;;;;;;4.40;2.13;;;;;;;10.77;66.31;100067.78;4195693;28;20035;-73
2022/12/29 01:08:28;;;;;;;4.82;2.38;;;;;;;10.87;65.75;100060.06;4195772;28;20074;-73
2022/12/29 01:10:30;;;;;;;6.05;2.28;;;;;;;10.76;64.92;100058.25;4196013;28;20080;-73
2022/12/29 01:12:44;;;;;;;5.38;2.78;;;;;;;10.75;65.06;100066.91;4199290;28;20445;-73
2022/12/29 01:14:47;;;;;;;7.05;4.10;;;;;;;10.78;64.79;100048.72;4199661;28;20090;-73
2022/12/29 01:16:50;;;;;;;4.93;2.67;;;;;;;10.74;65.32;100052.16;4199146;28;20146;-73
2022/12/29 01:18:53;;;;;;;4.20;2.22;;;;;;;10.77;65.83;100059.97;4197828;28;20040;-73
2022/12/29 01:21:02;;;;;;;3.78;1.80;;;;;;;10.76;65.45;100058.25;4182312;28;20048;-74
2022/12/29 01:23:05;;;;;;;3.15;1.92;;;;;;;10.85;65.72;100047.03;4200253;28;20041;-73
2022/12/29 01:25:08;;;;;;;4.00;1.70;;;;;;;10.82;65.47;100053.09;4200216;28;20044;-73
2022/12/29 01:27:13;;;;;;;3.53;1.67;;;;;;;10.96;65.86;100049.69;4198212;28;20467;-73
2022/12/29 01:29:17;;;;;;;4.82;1.77;;;;;;;10.81;66.04;100055.69;4197110;28;20090;-73
2022/12/29 01:31:21;;;;;;;3.05;1.38;;;;;;;10.92;66.54;100045.34;4197977;28;20374;-73
2022/12/29 01:33:24;;;;;;;2.23;1.30;;;;;;;10.86;66.49;100053.09;4196378;28;20032;-73
2022/12/29 01:35:28;;;;;;;2.72;1.30;;;;;;;10.97;67.33;100046.25;4197711;28;20305;-74
2022/12/29 01:37:34;;;;;;;3.08;1.33;;;;;;;11.04;67.67;100040.22;4197820;28;20743;-74
2022/12/29 01:39:37;;;;;;;1.55;1.05;;;;;;;11.12;68.15;100041.09;4198424;28;20079;-73
2022/12/29 01:41:40;;;;;;;3.80;1.48;;;;;;;11.08;68.10;100039.38;4197730;28;20638;-73
2022/12/29 01:43:45;;;;;;;1.08;0.90;;;;;;;11.29;68.31;100042.94;4180977;28;20486;-73
2022/12/29 01:45:51;;;;;;;3.22;1.05;;;;;;;11.22;69.27;100047.25;4197531;28;20513;-73
2022/12/29 01:47:58;;;;;;;2.97;0.93;;;;;;;11.25;69.08;100051.59;4192294;28;20039;-73
2022/12/29 01:50:06;;;;;;;2.72;1.17;;;;;;;11.26;69.10;100048.13;4199576;28;20551;-73
2022/12/29 01:52:09;;;;;;;4.20;1.42;;;;;;;11.24;69.60;100049.84;4199095;28;20040;-73
2022/12/29 01:54:18;;;;;;;5.20;1.30;;;;;;;11.17;69.24;100039.41;4197500;28;20450;-74
2022/12/29 01:56:21;;;;;;;6.05;1.30;;;;;;;11.17;69.41;100052.44;4193709;28;20047;-73
2022/12/29 01:58:31;;;;;;;4.03;1.38;;;;;;;11.22;69.76;100054.19;4196572;28;20449;-73
2022/12/29 02:00:34;;;;;;;1.40;0.95;;;;;;;11.24;69.31;100049.84;4197014;28;20044;-72
2022/12/29 02:02:38;;;;;;;3.25;1.08;;;;;;;11.30;69.72;100037.75;4197515;28;20047;-72
2022/12/29 02:04:44;;;;;;;3.10;1.20;;;;;;;11.29;69.19;100050.75;4180226;28;20048;-72
2022/12/29 02:06:52;;;;;;;2.97;1.15;;;;;;;11.33;69.11;100037.75;4198995;28;20390;-73
2022/12/29 02:08:57;;;;;;;3.88;1.35;;;;;;;11.37;68.88;100024.75;4195919;28;20522;-73
2022/12/29 02:11:03;;;;;;;2.40;1.10;;;;;;;11.30;69.06;100037.75;4187994;28;20082;-73
2022/12/29 02:13:09;;;;;;;3.00;1.15;;;;;;;11.30;69.42;100040.34;4198227;28;20047;-73
2022/12/29 02:15:12;;;;;;;1.45;0.98;;;;;;;11.23;69.84;100037.69;4196932;28;20033;-74
2022/12/29 02:17:26;;;;;;;2.13;0.93;;;;;;;11.26;70.09;100022.97;4196360;28;20102;-73
2022/12/29 02:20:02;;;;;;;3.90;1.70;;;;;;;11.28;70.17;100041.19;4197620;28;20448;-73
2022/12/29 02:22:16;;;;;;;2.53;0.90;;;;;;;11.32;69.35;100050.75;4203644;28;20093;-73
2022/12/29 02:24:52;;;;;;;1.20;0.80;;;;;;;11.32;69.84;100041.22;4196998;28;20036;-73
2022/12/29 02:27:25;;;;;;;1.52;1.10;;;;;;;11.27;69.27;100039.44;4197091;28;20381;-73
2022/12/29 02:29:43;;;;;;;3.45;1.67;;;;;;;11.32;70.05;100042.97;4179843;28;20044;-73
2022/12/29 02:31:55;;;;;;;3.45;1.10;;;;;;;11.37;69.19;100043.84;4196738;28;20032;-73
2022/12/29 02:34:11;;;;;;;2.17;1.13;;;;;;;11.42;68.74;100028.22;4196520;28;20052;-74
2022/12/29 02:36:26;;;;;;;2.20;1.02;;;;;;;11.32;69.45;100038.59;4197060;28;20258;-74
2022/12/29 02:38:46;;;;;;;3.20;1.30;;;;;;;11.42;68.44;100016.09;4196519;28;20041;-73
2022/12/29 02:40:54;;;;;;;2.67;1.30;;;;;;;11.49;68.85;100022.19;4186482;28;20534;-73
2022/12/29 02:43:04;;;;;;;1.38;1.00;;;;;;;11.48;68.95;100026.53;4196061;28;20095;-73
2022/12/29 02:45:15;;;;;;;3.72;1.20;;;;;;;11.52;68.41;100016.97;4196467;28;20036;-73
2022/12/29 02:47:30;;;;;;;1.70;1.20;;;;;;;11.43;68.88;100012.63;4197003;28;20060;-72
2022/12/29 02:49:39;;;;;;;6.97;1.40;;;;;;;11.38;69.30;100011.75;4194579;28;20091;-72
2022/12/29 02:51:49;;;;;;;1.40;0.80;;;;;;;11.34;69.09;100012.59;4196631;28;20483;-73
2022/12/29 02:56:13;;;;;;;4.68;1.27;;;;;;;11.42;69.33;100017.81;4196756;28;20145;-73
2022/12/29 02:58:19;;;;;;;2.03;1.27;;;;;;;11.42;69.27;100015.22;4197392;28;20043;-73
2022/12/29 03:00:22;;;;;;;4.18;1.40;;;;;;;11.43;68.61;100020.41;4179257;28;20124;-72
2022/12/29 03:02:47;;;;;;;2.35;1.30;;;;;;;11.33;69.47;100008.25;4190712;28;20040;-73
2022/12/29 03:05:11;;;;;;;2.38;1.45;;;;;;;11.38;69.20;100011.75;4196044;28;20051;-73
2022/12/29 03:07:19;;;;;;;3.78;1.58;;;;;;;11.38;69.61;100006.53;4193637;28;20041;-73
2022/12/29 03:09:34;;;;;;;3.08;1.30;;;;;;;11.37;69.23;99996.97;4193143;28;20052;-73
2022/12/29 03:16:41;;;;;;;4.40;1.27;;;;;;;11.27;69.80;99993.50;4211887;28;20503;-73
2022/12/29 03:18:53;;;;;;;2.97;1.60;;;;;;;11.25;69.41;99981.34;4197211;28;20060;-74
2022/12/29 03:21:03;;;;;;;6.28;1.25;;;;;;;11.26;70.12;99985.69;4195896;28;20517;-73
2022/12/29 03:23:07;;;;;;;3.03;1.67;;;;;;;11.32;69.81;99975.28;4196523;28;20393;-73
2022/12/29 03:25:26;;;;;;;3.28;1.60;;;;;;;11.37;69.33;99981.38;4178500;28;20457;-74
2022/12/29 03:27:33;;;;;;;2.92;1.30;;;;;;;11.29;69.61;99965.75;4198120;28;20050;-73
2022/12/29 03:29:40;;;;;;;1.70;1.17;;;;;;;11.31;69.18;99973.53;4198328;28;20063;-74
2022/12/29 03:31:45;;;;;;;1.25;1.00;;;;;;;11.30;69.64;99969.19;4196888;28;20041;-74
2022/12/29 03:33:50;;;;;;;2.92;1.42;;;;;;;11.26;69.09;99970.94;4195929;28;20091;-74
2022/12/29 03:35:59;;;;;;;2.88;1.58;;;;;;;11.23;70.10;99975.25;4198282;28;20043;-73
2022/12/29 03:38:11;;;;;;;1.42;1.15;;;;;;;11.23;70.31;99968.31;4169845;28;20136;-73
2022/12/29 03:40:15;;;;;;;2.25;1.08;;;;;;;11.34;69.55;99964.00;4196370;28;20036;-75
2022/12/29 03:42:24;;;;;;;3.22;1.20;;;;;;;11.26;69.99;99973.53;4196041;28;20044;-73
2022/12/29 03:44:33;;;;;;;6.13;2.80;;;;;;;11.33;69.59;99972.69;4178622;28;20045;-73
2022/12/29 03:46:37;;;;;;;3.53;1.40;;;;;;;11.31;69.62;99955.34;4189915;28;20048;-74
2022/12/29 03:48:40;;;;;;;1.58;1.10;;;;;;;11.26;69.19;99964.88;4192357;28;20097;-73
2022/12/29 03:50:45;;;;;;;3.28;1.30;;;;;;;11.24;69.41;99956.16;4196504;28;20036;-73
2022/12/29 03:52:48;;;;;;;2.47;1.10;;;;;;;11.20;69.92;99949.22;4195548;28;20037;-73
2022/12/29 03:54:51;;;;;;;3.80;1.08;;;;;;;11.22;69.90;99934.50;4194283;28;20449;-73
2022/12/29 03:56:54;;;;;;;3.13;1.30;;;;;;;11.20;69.57;99934.50;4196356;28;20041;-73
2022/12/29 03:59:09;;;;;;;1.50;1.00;;;;;;;11.12;69.84;99946.59;4195853;28;20037;-73
2022/12/29 04:01:15;;;;;;;3.83;1.27;;;;;;;11.12;69.49;99942.25;4195785;28;20032;-73
2022/12/29 04:03:20;;;;;;;3.78;1.40;;;;;;;11.12;69.51;99926.63;4178789;28;20040;-73
2022/12/29 04:05:23;;;;;;;2.67;1.35;;;;;;;11.14;69.56;99935.34;4194593;28;20033;-73
2022/12/29 04:07:30;;;;;;;2.03;1.30;;;;;;;11.18;68.96;99931.00;4193268;28;20037;-74
2022/12/29 04:09:33;;;;;;;2.15;1.55;;;;;;;11.16;69.45;99940.53;4178869;28;20040;-73
2022/12/29 04:11:37;;;;;;;3.50;1.60;;;;;;;11.10;69.20;99951.78;4195222;28;20505;-73
2022/12/29 04:13:41;;;;;;;1.77;1.08;;;;;;;11.04;69.72;99938.78;4194854;28;20075;-72
2022/12/29 04:15:46;;;;;;;3.15;1.27;;;;;;;11.15;69.42;99931.84;4179380;28;20041;-72
2022/12/29 04:17:49;;;;;;;2.72;1.17;;;;;;;11.12;69.07;99942.25;4196470;28;20134;-73
2022/12/29 04:20:59;;;;;;;3.90;1.23;;;;;;;11.14;68.56;99940.53;4195128;28;20037;-73
2022/12/29 04:22:16;;;;;;;2.55;1.10;;;;;;;11.03;69.24;99944.81;4191583;28;20036;-73
2022/12/29 04:24:21;;;;;;;1.75;0.95;;;;;;;11.07;69.24;99941.38;4194781;28;20056;-73
2022/12/29 04:26:25;;;;;;;1.73;1.20;;;;;;;11.15;68.95;99944.00;4193517;28;20032;-73
2022/12/29 04:28:34;;;;;;;5.70;1.38;;;;;;;11.16;68.34;99948.34;4195193;28;20040;-72
2022/12/29 04:30:51;;;;;;;3.97;1.40;;;;;;;11.17;68.69;99939.69;4195733;28;20044;-72
2022/12/29 04:32:59;;;;;;;4.32;1.23;;;;;;;11.15;68.78;99944.84;4188453;28;20430;-73
2022/12/29 04:35:05;;;;;;;3.22;1.27;;;;;;;11.12;69.00;99936.19;4175636;28;20079;-72
2022/12/29 04:37:08;;;;;;;2.42;1.10;;;;;;;11.10;69.01;99944.00;4205613;28;20056;-73
2022/12/29 04:39:12;;;;;;;2.97;2.00;;;;;;;11.16;68.33;99933.59;4195119;28;20036;-72
2022/12/29 04:41:17;;;;;;;1.42;1.02;;;;;;;11.17;68.88;99944.91;4195022;28;20037;-73
2022/12/29 04:43:21;;;;;;;1.85;1.15;;;;;;;11.14;68.33;99940.53;4193972;28;20074;-72
2022/12/29 04:45:37;;;;;;;4.13;1.52;;;;;;;11.11;68.14;99934.44;4193958;28;20033;-73
2022/12/29 04:47:56;;;;;;;1.55;1.00;;;;;;;11.04;68.66;99938.78;4171013;28;20056;-72
2022/12/29 04:50:01;;;;;;;4.90;1.30;;;;;;;11.03;68.89;99934.44;4188632;28;20056;-72
2022/12/29 04:52:14;;;;;;;3.83;1.20;;;;;;;11.00;68.48;99939.63;4191549;28;20156;-73
2022/12/29 04:54:19;;;;;;;2.20;1.20;;;;;;;11.09;67.98;99924.03;4177758;28;20041;-73
2022/12/29 04:56:31;;;;;;;2.50;1.10;;;;;;;11.20;68.03;99939.69;4192443;28;20059;-72
2022/12/29 04:58:34;;;;;;;1.48;0.98;;;;;;;11.21;67.98;99932.75;4176722;28;20040;-74
2022/12/29 05:00:37;;;;;;;1.13;0.88;;;;;;;11.18;67.61;99938.81;4196916;28;20554;-73
2022/12/29 05:02:40;;;;;;;1.50;1.20;;;;;;;11.11;67.73;99948.34;4194894;28;20037;-73
2022/12/29 05:04:44;;;;;;;1.77;1.02;;;;;;;11.18;67.96;99949.22;4192825;28;20063;-72
2022/12/29 05:06:46;;;;;;;3.95;2.33;;;;;;;11.16;67.32;99935.34;4194864;28;20147;-72
2022/12/29 05:08:49;;;;;;;1.40;0.95;;;;;;;11.15;67.67;99937.06;4210917;28;20082;-73
2022/12/29 05:10:52;;;;;;;2.60;0.90;;;;;;;11.23;67.27;99944.00;4194850;28;20043;-73
2022/12/29 05:12:58;;;;;;;0.95;0.90;;;;;;;11.13;67.66;99928.38;4194806;28;20068;-73
2022/12/29 05:15:02;;;;;;;1.90;1.00;;;;;;;11.09;68.21;99939.66;4194666;28;20040;-73
2022/12/29 05:17:06;;;;;;;1.65;1.00;;;;;;;11.05;68.11;99935.28;4194076;28;21236;-74
2022/12/29 05:19:09;;;;;;;6.05;1.30;;;;;;;11.11;67.27;99940.53;4191552;28;20087;-73
2022/12/29 05:21:13;;;;;;;1.73;1.10;;;;;;;11.16;67.52;99938.81;4194542;28;20028;-73
2022/12/29 05:23:17;;;;;;;3.50;1.20;;;;;;;11.18;67.76;99936.19;4177196;28;20041;-74
2022/12/29 05:25:25;;;;;;;1.92;1.23;;;;;;;11.16;66.70;99937.94;4194512;28;20047;-73
2022/12/29 05:27:42;;;;;;;4.40;1.63;;;;;;;11.18;67.27;99931.00;4176136;28;20037;-72
2022/12/29 05:29:55;;;;;;;3.70;1.40;;;;;;;11.15;67.81;99942.25;4204000;28;20093;-73
2022/12/29 05:31:58;;;;;;;3.03;1.15;;;;;;;11.19;67.71;99940.56;4193910;28;20072;-72
2022/12/29 05:34:02;;;;;;;2.17;0.90;;;;;;;11.14;67.31;99931.84;4192521;28;20037;-73
2022/12/29 05:36:05;;;;;;;2.95;1.20;;;;;;;11.14;67.45;99931.84;4195388;28;20080;-72
2022/12/29 05:38:09;;;;;;;2.40;1.33;;;;;;;11.21;67.65;99928.41;4188972;28;20060;-74
2022/12/29 05:40:13;;;;;;;3.13;1.17;;;;;;;11.08;67.50;99940.53;4190709;28;20036;-75
2022/12/29 05:42:16;;;;;;;6.60;1.45;;;;;;;11.17;67.33;99945.75;4189576;28;20041;-74
2022/12/29 05:44:40;;;;;;;2.53;1.10;;;;;;;10.99;68.28;99936.16;4174715;28;20056;-73
2022/12/29 05:46:56;;;;;;;2.00;1.25;;;;;;;10.92;68.28;99938.72;4194417;28;20433;-74
2022/12/29 05:49:20;;;;;;;;;;;;;;;10.82;67.82;99933.47;4186073;28;20569;-74
2022/12/29 05:51:30;;;;;;;3.05;1.30;;;;;;;10.94;68.34;99931.78;4208534;28;20422;-72
2022/12/29 05:53:33;;;;;;;2.65;1.08;;;;;;;10.95;68.15;99931.81;4194974;28;20036;-71
2022/12/29 05:55:36;;;;;;;1.55;1.05;;;;;;;10.98;68.84;99936.13;4195473;28;20045;-73
2022/12/29 05:57:39;;;;;;;5.35;1.70;;;;;;;10.94;68.78;99939.59;4197103;28;20091;-73
2022/12/29 05:59:48;;;;;;;1.45;1.17;;;;;;;11.03;68.12;99936.16;4198501;28;20471;-73
2022/12/29 06:01:51;;;;;;;3.83;1.08;;;;;;;10.93;67.92;99941.31;4197229;28;20079;-73
2022/12/29 06:03:55;;;;;;;1.20;0.90;;;;;;;10.87;68.82;99930.03;4181062;28;20502;-73
2022/12/29 06:05:58;;;;;;;3.40;1.30;;;;;;;10.97;68.43;99939.59;4198283;28;20038;-73
2022/12/29 06:08:02;;;;;;;4.65;2.05;;;;;;;11.03;68.52;99923.16;4181731;28;20099;-73
2022/12/29 06:10:06;;;;;;;1.88;1.05;;;;;;;11.01;68.72;99930.97;4198313;28;20040;-73
2022/12/29 06:12:17;;;;;;;2.53;1.42;;;;;;;11.00;68.68;99924.00;4181580;28;20049;-72
2022/12/29 06:14:23;;;;;;;2.75;1.00;;;;;;;10.97;69.08;99926.59;4197863;28;20498;-73
2022/12/29 06:16:29;;;;;;;3.15;1.27;;;;;;;11.06;68.33;99916.22;4195357;28;20033;-72
2022/12/29 06:18:34;;;;;;;3.60;1.40;;;;;;;11.00;69.29;99924.00;4197245;28;20033;-72
2022/12/29 06:20:38;;;;;;;3.38;1.35;;;;;;;11.02;68.78;99914.47;4197120;28;20469;-72
2022/12/29 06:22:43;;;;;;;3.35;1.52;;;;;;;11.09;69.14;99913.63;4175564;28;20033;-73
2022/12/29 06:24:46;;;;;;;1.80;1.10;;;;;;;11.05;68.73;99914.47;4193318;28;20127;-73
2022/12/29 06:26:49;;;;;;;4.28;1.20;;;;;;;11.00;68.88;99926.63;4190842;28;20487;-73
2022/12/29 06:28:52;;;;;;;3.42;1.50;;;;;;;11.03;68.65;99925.75;4194762;28;20047;-73
2022/12/29 06:30:55;;;;;;;4.05;1.27;;;;;;;11.05;69.04;99931.81;4194929;28;20040;-73
2022/12/29 06:32:58;;;;;;;2.58;1.52;;;;;;;11.00;68.58;99930.06;4196199;28;20045;-72
2022/12/29 06:35:01;;;;;;;2.72;1.30;;;;;;;11.02;68.79;99924.00;4178788;28;20489;-72
2022/12/29 06:37:06;;;;;;;2.55;1.13;;;;;;;11.08;68.22;99909.31;4196699;28;20124;-72
2022/12/29 06:39:11;;;;;;;2.10;1.42;;;;;;;11.06;69.22;99915.38;4196334;28;20032;-72
2022/12/29 06:41:14;;;;;;;5.25;1.52;;;;;;;11.02;68.77;99911.00;4193027;28;20029;-73
2022/12/29 06:43:37;;;;;;;2.25;1.45;;;;;;;11.01;68.83;99907.56;4197308;28;20032;-72
2022/12/29 06:45:59;;;;;;;4.22;1.30;;;;;;;11.03;68.73;99913.63;4195991;28;20494;-72
2022/12/29 06:48:02;;;;;;;1.05;0.90;;;;;;;11.00;67.84;99911.88;4197525;28;20029;-73
2022/12/29 06:50:06;;;;;;;2.58;1.30;;;;;;;11.03;67.99;99908.41;4196954;28;20048;-73
2022/12/29 06:52:10;;;;;;;1.87;1.30;;;;;;;11.05;66.92;99911.88;4179637;28;20859;-73
2022/12/29 06:54:15;;;;;;;2.42;1.10;;;;;;;11.05;67.94;99908.41;4194445;28;20302;-73
2022/12/29 06:56:18;;;;;;;2.20;1.55;;;;;;;11.15;67.78;99904.97;4196887;28;20111;-72
2022/12/29 06:58:21;;;;;;;4.38;1.30;;;;;;;11.16;67.78;99899.78;4197575;28;20033;-73
2022/12/29 07:00:24;;;;;;;3.10;1.30;;;;;;;11.15;67.15;99894.56;4197457;28;20115;-73
2022/12/29 07:02:26;;;;;;;2.67;1.30;;;;;;;11.13;67.94;99891.97;4196295;28;20044;-72
2022/12/29 07:04:30;;;;;;;3.90;1.58;;;;;;;11.09;67.83;99913.63;4196413;28;20119;-73
2022/12/29 07:06:32;;;;;;;2.35;1.30;;;;;;;11.10;67.65;99906.72;4197381;28;20494;-72
2022/12/29 07:08:38;;;;;;;5.15;1.50;;;;;;;11.12;67.26;99908.44;4191198;28;20037;-72
2022/12/29 07:10:41;;;;;;;3.00;1.42;;;;;;;11.12;66.96;99898.03;4197185;28;20040;-71
2022/12/29 07:12:43;;;;;;;3.20;1.40;;;;;;;11.13;67.07;99906.72;4197481;28;20554;-73
2022/12/29 07:14:46;;;;;;;3.35;1.60;;;;;;;11.14;66.61;99914.53;4196569;28;20033;-72
2022/12/29 07:16:49;;;;;;;5.38;2.03;;;;;;;11.21;66.10;99910.19;4197227;28;20032;-73
2022/12/29 07:18:52;;;;;;;1.63;1.30;;;;;;;11.19;66.30;99914.53;4197141;28;20090;-73
2022/12/29 07:20:55;;;;;;;5.68;2.08;;;;;;;11.20;66.48;99910.19;4196241;28;20127;-73
2022/12/29 07:23:00;;;;;;;5.78;2.08;;;;;;;11.28;66.07;99913.69;4177802;28;20041;-73
2022/12/29 07:25:05;;;;;;;3.42;1.80;;;;;;;11.22;65.98;99921.50;4196013;28;20102;-73
2022/12/29 07:27:08;;;;;;;3.70;1.63;;;;;;;11.23;66.42;99921.50;4196263;28;20044;-72
2022/12/29 07:29:10;;;;;;;1.67;1.20;;;;;;;11.18;65.96;99926.69;4193981;28;20111;-72
2022/12/29 07:31:16;;;;;;;4.63;1.70;;;;;;;11.28;65.60;99929.31;4196766;28;20114;-72
2022/12/29 07:33:19;;;;;;;4.53;1.52;;;;;;;11.30;65.13;99927.56;4196109;28;20524;-73
2022/12/29 07:35:22;;;;;;;3.70;1.58;;;;;;;11.34;64.90;99926.72;4197937;28;20033;-73
2022/12/29 07:37:24;;;;;;;4.10;1.95;;;;;;;11.32;65.12;99920.66;4193537;28;20041;-73
2022/12/29 07:39:27;;;;;;;4.47;1.70;;;;;;;11.40;64.61;99920.66;4196161;28;20421;-72
2022/12/29 07:41:31;;;;;;;2.30;1.23;;;;;;;11.37;65.11;99924.13;4195753;28;20054;-74
2022/12/29 07:43:37;;;;;;;6.82;1.75;;;;;;;11.38;64.45;99931.06;4189891;28;20037;-70
2022/12/29 07:45:59;;;;;;;3.78;1.65;;;;;;;11.44;64.19;99928.47;4185283;28;20049;-73
2022/12/29 07:48:05;;;;;;;3.50;1.35;;;;;;;11.46;64.78;99928.47;4180054;28;20141;-72
2022/12/29 07:50:08;;;;;;;3.75;1.80;;;;;;;11.41;64.85;99935.41;4197819;28;20044;-71
2022/12/29 07:52:11;;;;;;;4.55;1.65;;;;;;;11.37;64.76;99936.28;4197828;28;20040;-73
2022/12/29 07:54:17;;;;;;;5.00;1.85;;;;;;;11.45;64.38;99935.41;4197518;28;20044;-72
2022/12/29 07:56:20;;;;;;;2.72;1.75;;;;;;;11.43;64.45;99944.09;4196641;28;20051;-73
2022/12/29 07:58:25;;;;;;;2.67;1.40;;;;;;;11.49;64.58;99942.38;4197570;28;20119;-73
2022/12/29 08:00:28;;;;;;;5.93;2.08;;;;;;;11.44;64.26;99938.88;4197790;28;20047;-73
2022/12/29 08:02:33;;;;;;;2.63;1.30;;;;;;;11.49;64.74;99938.88;4196290;28;20084;-72
2022/12/29 08:04:36;;;;;;;2.58;1.67;;;;;;;11.53;64.05;99938.91;4197350;28;20094;-72
2022/12/29 08:06:39;;;;;;;3.05;1.30;;;;;;;11.50;64.53;99941.47;4197667;28;20050;-72
2022/12/29 08:08:42;;;;;;;3.00;1.20;;;;;;;11.56;63.64;99948.44;4196292;28;20045;-72
2022/12/29 08:10:45;;;;;;;3.63;1.70;;;;;;;11.57;64.09;99950.19;4195268;28;20044;-72
2022/12/29 08:12:48;;;;;;;2.83;1.70;;;;;;;11.62;64.19;99951.09;4197385;28;20032;-72
2022/12/29 08:14:52;;;;;;;6.93;1.67;;;;;;;11.60;64.34;99954.53;4180690;28;20041;-72
2022/12/29 08:16:55;;;;;;;3.47;1.50;;;;;;;11.61;64.22;99966.66;4180982;28;20090;-72
2022/12/29 08:18:58;;;;;;;4.25;1.77;;;;;;;11.68;63.54;99968.41;4188166;28;20380;-71
2022/12/29 08:21:02;;;;;;;3.35;1.65;;;;;;;11.66;63.95;99975.38;4196003;28;20510;-72
2022/12/29 08:23:05;;;;;;;4.18;1.90;;;;;;;11.62;63.92;99978.84;4195005;28;20044;-72
2022/12/29 08:25:09;;;;;;;5.65;1.63;;;;;;;11.57;64.11;99972.75;4195171;28;20044;-72
2022/12/29 08:27:12;;;;;;;4.80;1.60;;;;;;;11.63;64.31;99971.03;4196325;28;20044;-73
2022/12/29 08:29:22;;;;;;;4.72;1.67;;;;;;;11.59;63.71;99974.47;4195331;28;20041;-72
2022/12/29 08:31:27;;;;;;;6.90;2.00;;;;;;;11.64;64.44;99982.31;4196315;28;20154;-73
2022/12/29 08:33:30;;;;;;;3.90;1.80;;;;;;;11.57;64.22;99977.97;4195129;28;20040;-73
2022/12/29 08:35:33;;;;;;;4.45;1.52;;;;;;;11.63;63.93;99986.66;4196193;28;20041;-73
2022/12/29 08:37:36;;;;;;;2.35;1.67;;;;;;;11.68;65.11;99984.94;4195847;28;20070;-73
2022/12/29 08:39:39;;;;;;;4.43;1.83;;;;;;;11.66;64.91;99986.66;4194927;28;20494;-72
2022/12/29 08:41:42;;;;;;;4.07;1.67;;;;;;;11.65;64.86;99982.31;4196937;28;20033;-73
2022/12/29 08:43:46;;;;;;;2.65;1.40;;;;;;;11.69;64.79;99973.63;4194395;28;20098;-72
2022/12/29 08:45:49;;;;;;;4.93;1.55;;;;;;;11.63;65.41;99980.56;4203749;28;20134;-72
2022/12/29 08:47:53;;;;;;;4.28;1.40;;;;;;;11.69;65.13;99981.44;4189668;28;20041;-72
2022/12/29 08:49:56;;;;;;;2.25;1.33;;;;;;;11.67;64.72;99987.53;4195079;28;20040;-73
2022/12/29 08:51:59;;;;;;;4.60;2.03;;;;;;;11.69;64.97;99986.66;4195077;28;20482;-73
2022/12/29 08:54:02;;;;;;;1.98;1.65;;;;;;;11.70;64.60;99983.19;4189541;28;20041;-73
2022/12/29 08:56:07;;;;;;;3.95;1.80;;;;;;;11.73;64.36;99982.34;4177046;28;20045;-73
2022/12/29 08:58:18;;;;;;;4.57;1.80;;;;;;;11.78;64.49;99990.16;4194175;28;20078;-73
2022/12/29 09:00:22;;;;;;;2.13;1.52;;;;;;;11.69;64.78;99991.84;4194187;28;20048;-74
2022/12/29 09:02:26;;;;;;;5.40;1.88;;;;;;;11.62;64.10;99991.84;4194861;28;20040;-71
2022/12/29 09:04:31;;;;;;;6.88;1.90;;;;;;;11.69;64.94;99993.59;4193128;28;20154;-71
2022/12/29 09:06:34;;;;;;;2.50;1.83;;;;;;;11.71;64.52;99991.88;4186592;28;20032;-71
2022/12/29 09:08:42;;;;;;;4.00;1.73;;;;;;;11.63;64.63;99991.00;4195941;28;20052;-73
2022/12/29 09:10:45;;;;;;;3.00;1.52;;;;;;;11.61;64.58;99990.09;4193405;28;20580;-73
2022/12/29 09:12:48;;;;;;;3.67;1.63;;;;;;;11.68;64.38;100007.47;4196881;28;20045;-72
2022/12/29 09:14:51;;;;;;;5.63;2.10;;;;;;;11.69;64.15;100001.41;4194249;28;20049;-72
2022/12/29 09:19:15;;;;;;;5.38;1.95;;;;;;;11.90;63.73;99994.50;4193672;28;20032;-67
2022/12/29 09:21:20;;;;;;;9.80;2.03;;;;;;;12.03;63.04;99991.97;4192303;28;20514;-68
2022/12/29 09:23:22;;;;;;;5.07;2.00;;;;;;;12.15;62.97;100009.34;4196587;28;20494;-67
2022/12/29 09:25:26;;;;;;;5.75;2.03;;;;;;;12.25;62.98;100006.72;4191206;28;20037;-64
2022/12/29 09:27:29;;;;;;;7.05;2.10;;;;;;;12.23;62.89;100004.97;4194182;28;20024;-64
2022/12/29 09:29:32;;;;;;;10.38;2.10;;;;;;;12.28;62.58;100010.22;4206240;28;20032;-65
2022/12/29 09:31:35;;;;;;;6.80;1.63;;;;;;;12.42;61.95;100015.41;4189021;28;20065;-65
2022/12/29 09:33:38;;;;;;;7.15;1.90;;;;;;;12.44;61.91;100013.69;4195328;28;20055;-64
2022/12/29 09:35:43;;;;;;;5.45;1.88;;;;;;;12.50;62.08;100024.09;4197846;28;20064;-66
2022/12/29 09:37:47;;;;;;;12.48;2.70;;;;;;;12.47;62.27;100018.88;4198612;28;20498;-64
2022/12/29 09:39:50;;;;;;;5.53;2.10;;;;;;;12.40;62.82;100028.44;4194105;28;20090;-65
2022/12/29 09:42:06;;;;;;;9.63;1.90;;;;;;;12.36;63.00;100038.88;4199881;28;20089;-66
2022/12/29 09:44:18;;;;;;;7.80;3.03;;;;;;;12.41;62.87;100029.28;4188831;28;20114;-66
2022/12/29 09:46:26;;;;;;;5.03;2.15;;;;;;;12.40;63.36;100023.22;4199622;28;20036;-67
2022/12/29 09:48:34;;;;;;;5.22;1.80;;;;;;;12.45;63.23;100051.91;4188843;28;20044;-67
2022/12/29 09:50:38;;;;;;;10.63;2.25;;;;;;;12.44;63.16;100039.75;4197848;28;20036;-69
2022/12/29 09:52:48;;;;;;;5.10;1.67;;;;;;;12.45;63.22;100041.47;4197783;28;20592;-67
2022/12/29 09:54:56;;;;;;;3.88;1.60;;;;;;;12.54;62.68;100046.69;4199429;28;20040;-66
2022/12/29 09:57:11;;;;;;;5.20;1.50;;;;;;;12.49;62.84;100048.44;4191488;28;20044;-68
2022/12/29 09:59:19;;;;;;;7.70;1.70;;;;;;;12.42;63.38;100045.84;4198153;28;20036;-72
2022/12/29 10:01:31;;;;;;;3.60;1.50;;;;;;;12.41;63.59;100039.72;4197215;28;20066;-65
2022/12/29 10:03:45;;;;;;;5.00;1.77;;;;;;;12.40;63.63;100038.88;4197094;28;20040;-69
2022/12/29 10:05:54;;;;;;;2.92;1.75;;;;;;;12.47;63.85;100034.53;4198898;28;20051;-71
2022/12/29 10:08:17;;;;;;;5.82;1.67;;;;;;;12.44;63.95;100050.19;4185045;28;20511;-66
2022/12/29 10:10:35;;;;;;;3.85;1.90;;;;;;;12.45;63.79;100049.28;4198101;28;20040;-69
2022/12/29 10:12:56;;;;;;;7.47;2.30;;;;;;;12.40;64.14;100051.91;4198260;28;20036;-76
2022/12/29 10:15:05;;;;;;;3.95;1.83;;;;;;;12.41;64.13;100057.97;4194634;28;20113;-76
2022/12/29 10:17:24;;;;;;;6.63;1.77;;;;;;;12.37;64.05;100048.44;4196752;28;20048;-76
2022/12/29 10:19:40;;;;;;;8.88;2.45;;;;;;;12.34;64.50;100053.66;4191768;28;20033;-75
2022/12/29 10:21:57;;;;;;;4.53;2.25;;;;;;;12.42;64.39;100045.84;4196155;28;20433;-75
2022/12/29 10:24:05;;;;;;;4.95;1.88;;;;;;;12.36;64.22;100047.56;4198833;28;20048;-76
2022/12/29 10:26:14;;;;;;;7.20;2.22;;;;;;;12.36;64.47;100051.91;4198595;28;20072;-76
2022/12/29 10:28:21;;;;;;;8.48;2.00;;;;;;;12.37;64.58;100053.66;4197563;28;20051;-76